createdAt,value
2022-12-21T00:01:48.250Z,34.00
2022-12-21T00:06:52.355Z,30.63
2022-12-21T00:11:55.845Z,28.80
2022-12-21T00:17:00.779Z,35.07
2022-12-21T00:22:04.216Z,35.70
2022-12-21T00:27:07.597Z,34.63
2022-12-21T00:32:12.679Z,30.03
2022-12-21T00:37:16.026Z,28.47
2022-12-21T00:42:19.403Z,26.97
2022-12-21T00:47:24.158Z,34.00
2022-12-21T00:52:29.477Z,30.13
2022-12-21T00:57:32.832Z,33.50
2022-12-21T01:02:38.141Z,29.03
2022-12-21T01:07:41.741Z,29.23
2022-12-21T01:12:45.039Z,33.43
2022-12-21T01:17:50.170Z,27.67
2022-12-21T01:22:53.475Z,32.73
2022-12-21T01:27:57.134Z,32.27
2022-12-21T01:33:02.018Z,29.83
2022-12-21T01:38:05.621Z,34.23
2022-12-21T01:43:19.892Z,35.23
2022-12-21T01:48:24.711Z,31.33
2022-12-21T01:53:32.985Z,31.90
2022-12-21T01:58:37.653Z,34.87
2022-12-21T02:08:50.760Z,36.73
2022-12-21T02:13:54.103Z,41.67
2022-12-21T02:20:02.881Z,31.20
2022-12-21T02:25:40.673Z,36.83
2022-12-21T02:31:01.570Z,43.00
2022-12-21T02:36:18.683Z,35.23
2022-12-21T02:41:37.943Z,32.33
2022-12-21T02:46:49.136Z,36.70
2022-12-21T02:51:58.807Z,33.93
2022-12-21T02:57:02.315Z,35.10
2022-12-21T03:02:38.252Z,32.60
2022-12-21T03:07:54.246Z,34.23
2022-12-21T03:13:06.670Z,34.57
2022-12-21T03:18:20.934Z,35.90
2022-12-21T03:23:32.144Z,36.25
2022-12-21T03:28:38.437Z,32.70
2022-12-21T03:33:49.388Z,32.20
2022-12-21T03:38:56.389Z,37.50
2022-12-21T03:44:03.844Z,35.47
2022-12-21T03:49:14.340Z,39.63
2022-12-21T03:54:25.576Z,31.87
2022-12-21T03:59:29.601Z,33.57
2022-12-21T04:04:39.489Z,35.20
2022-12-21T04:09:43.356Z,32.77
2022-12-21T04:14:46.726Z,35.73
2022-12-21T04:20:00.915Z,38.67
2022-12-21T04:25:22.187Z,62.30
2022-12-21T04:30:25.673Z,55.30
2022-12-21T04:35:30.580Z,61.80
2022-12-21T04:40:33.989Z,53.43
2022-12-21T04:45:37.444Z,49.27
2022-12-21T04:50:42.767Z,57.13
2022-12-21T04:55:46.780Z,41.20
2022-12-21T05:00:50.255Z,39.38
2022-12-21T05:05:55.059Z,42.67
2022-12-21T05:11:09.121Z,45.60
2022-12-21T05:16:14.369Z,34.05
2022-12-21T05:21:19.259Z,40.40
2022-12-21T05:26:22.884Z,32.60
2022-12-21T05:31:26.424Z,33.10
2022-12-21T05:36:31.761Z,34.63
2022-12-21T05:41:35.029Z,36.87
2022-12-21T05:46:39.066Z,38.80
2022-12-21T05:51:43.943Z,31.48
2022-12-21T06:01:50.553Z,37.20
2022-12-21T06:06:55.546Z,31.73
2022-12-21T06:17:02.022Z,35.00
2022-12-21T06:22:06.905Z,30.60
2022-12-21T06:27:10.362Z,36.00
2022-12-21T06:32:13.694Z,37.70
2022-12-21T06:37:18.557Z,32.27
2022-12-21T06:42:22.032Z,29.87
2022-12-21T06:47:25.513Z,35.57
2022-12-21T06:52:30.421Z,35.87
2022-12-21T06:57:34.217Z,36.87
2022-12-21T07:02:37.958Z,31.67
2022-12-21T07:07:43.229Z,37.87
2022-12-21T07:12:46.555Z,34.17
2022-12-21T07:17:50.031Z,32.50
2022-12-21T07:22:54.945Z,39.17
2022-12-21T07:27:58.645Z,32.13
2022-12-21T07:33:02.191Z,36.97
2022-12-21T07:38:07.025Z,34.53
2022-12-21T07:48:14.604Z,35.63
2022-12-21T07:53:19.731Z,31.30
2022-12-21T07:58:23.184Z,33.97
2022-12-21T08:03:26.767Z,33.90
2022-12-21T08:08:31.797Z,31.10
2022-12-21T08:13:35.274Z,25.90
2022-12-21T08:18:39.411Z,27.03
2022-12-21T08:23:44.255Z,26.80
2022-12-21T08:28:48.539Z,30.73
2022-12-21T08:33:52.037Z,24.50
2022-12-21T08:39:13.427Z,29.60
2022-12-21T08:44:16.923Z,22.87
2022-12-21T08:49:20.476Z,20.15
2022-12-21T08:54:25.421Z,24.63
2022-12-21T08:59:28.858Z,19.97
2022-12-21T09:04:32.431Z,17.97
2022-12-21T09:09:37.264Z,18.47
2022-12-21T09:14:40.803Z,21.17
2022-12-21T09:19:44.451Z,20.90
2022-12-21T09:24:49.437Z,21.13
2022-12-21T09:29:52.959Z,21.13
2022-12-21T09:34:56.526Z,19.23
2022-12-21T09:40:01.457Z,19.57
2022-12-21T09:45:18.145Z,18.87
2022-12-21T09:50:25.221Z,20.73
2022-12-21T09:55:34.859Z,20.98
2022-12-21T10:00:39.233Z,22.93
2022-12-21T10:05:59.988Z,23.13
2022-12-21T10:11:14.652Z,21.20
2022-12-21T10:16:42.947Z,22.58
2022-12-21T10:21:55.751Z,25.00
2022-12-21T10:27:05.983Z,24.40
2022-12-21T10:32:14.993Z,21.70
2022-12-21T10:37:19.976Z,22.67
2022-12-21T10:48:09.251Z,24.93
2022-12-21T10:53:21.524Z,24.83
2022-12-21T10:58:29.518Z,23.80
2022-12-21T11:03:37.794Z,21.73
2022-12-21T11:08:47.333Z,22.50
2022-12-21T11:14:02.482Z,25.50
2022-12-21T11:19:14.163Z,22.60
2022-12-21T11:24:23.182Z,21.07
2022-12-21T11:29:31.566Z,20.57
2022-12-21T11:34:38.405Z,18.97
2022-12-21T11:39:46.005Z,22.57
2022-12-21T11:44:52.466Z,18.23
2022-12-21T11:50:29.855Z,16.27
2022-12-21T11:55:39.072Z,20.47
2022-12-21T12:01:02.141Z,17.13
2022-12-21T12:06:23.877Z,17.63
2022-12-21T12:11:42.071Z,14.63
2022-12-21T12:17:00.686Z,16.30
2022-12-21T12:22:27.683Z,18.67
2022-12-21T12:27:53.680Z,18.20
2022-12-21T12:33:09.919Z,14.60
2022-12-21T12:38:19.453Z,14.70
2022-12-21T12:43:34.270Z,15.43
2022-12-21T12:48:48.215Z,19.23
2022-12-21T12:53:58.873Z,16.10
2022-12-21T12:59:08.661Z,17.30
2022-12-21T13:04:28.010Z,18.93
2022-12-21T13:09:42.930Z,19.27
2022-12-21T13:19:55.549Z,19.03
2022-12-21T13:25:01.998Z,16.90
2022-12-21T13:30:14.784Z,17.07
2022-12-21T13:35:27.586Z,19.97
2022-12-21T13:40:38.873Z,20.00
2022-12-21T13:45:49.268Z,11.70
2022-12-21T13:51:09.491Z,15.20
2022-12-21T13:56:22.663Z,17.23
2022-12-21T14:01:41.472Z,18.13
2022-12-21T14:07:16.129Z,18.90
2022-12-21T14:12:34.390Z,18.47
2022-12-21T14:17:46.729Z,19.80
2022-12-21T14:22:51.811Z,22.33
2022-12-21T14:28:08.173Z,19.10
2022-12-21T14:33:18.537Z,18.30
2022-12-21T14:38:30.727Z,19.40
2022-12-21T14:43:34.280Z,20.07
2022-12-21T14:49:05.370Z,20.13
2022-12-21T14:54:14.566Z,19.67
2022-12-21T14:59:18.965Z,18.13
2022-12-21T15:04:32.523Z,17.90
2022-12-21T15:09:37.412Z,20.27
2022-12-21T15:14:45.719Z,19.03
2022-12-21T15:19:53.503Z,20.53
2022-12-21T15:25:02.314Z,17.80
2022-12-21T15:30:22.560Z,26.05
2022-12-21T15:35:35.034Z,19.50
2022-12-21T15:40:40.396Z,20.13
2022-12-21T15:45:51.169Z,19.58
2022-12-21T15:50:57.215Z,20.25
2022-12-21T15:56:02.050Z,19.23
2022-12-21T16:01:18.859Z,19.00
2022-12-21T16:06:26.695Z,17.08
2022-12-21T16:12:10.659Z,18.38
2022-12-21T16:16:59.505Z,14.40
2022-12-21T16:22:07.604Z,15.77
2022-12-21T16:27:18.579Z,18.00
2022-12-21T16:32:23.408Z,14.10
2022-12-21T16:42:36.198Z,17.58
2022-12-21T16:47:39.578Z,17.33
2022-12-21T16:52:50.433Z,17.77
2022-12-21T16:57:58.968Z,15.23
2022-12-21T17:03:11.882Z,15.75
2022-12-21T17:08:25.057Z,15.35
2022-12-21T17:13:30.413Z,17.25
2022-12-21T17:18:47.919Z,21.67
2022-12-21T17:23:56.169Z,16.35
2022-12-21T17:29:00.959Z,20.27
2022-12-21T17:39:14.567Z,15.73
2022-12-21T17:49:42.912Z,10.88
2022-12-21T17:54:46.432Z,13.45
2022-12-21T17:59:51.231Z,12.15
2022-12-21T18:09:59.760Z,13.27
2022-12-21T18:15:04.831Z,11.25
2022-12-21T18:20:15.881Z,11.40
2022-12-21T18:25:22.219Z,10.95
2022-12-21T18:30:29.169Z,10.50
2022-12-21T18:35:32.620Z,11.90
2022-12-21T18:40:35.926Z,9.40
2022-12-21T18:45:40.737Z,7.00
2022-12-21T18:55:48.778Z,8.07
2022-12-21T19:00:53.585Z,8.82
2022-12-21T19:11:01.223Z,8.07
2022-12-21T19:16:10.003Z,8.88
2022-12-21T19:21:22.057Z,8.80
2022-12-21T19:26:29.344Z,6.10
2022-12-21T19:31:34.261Z,6.90
2022-12-21T19:36:38.824Z,7.30
2022-12-21T19:41:42.877Z,7.30
2022-12-21T19:46:47.872Z,7.75
2022-12-21T19:51:52.168Z,6.47
2022-12-21T19:56:58.010Z,6.85
2022-12-21T20:02:05.828Z,7.32
2022-12-21T20:07:12.655Z,6.35
2022-12-21T20:12:16.736Z,7.28
2022-12-21T20:17:24.610Z,5.90
2022-12-21T20:22:29.550Z,7.32
2022-12-21T20:32:39.193Z,7.90
2022-12-21T20:43:04.201Z,4.80
2022-12-21T20:48:16.309Z,5.82
2022-12-21T20:53:21.444Z,5.32
2022-12-21T20:58:24.832Z,4.70
2022-12-21T21:03:32.865Z,6.15
2022-12-21T21:08:36.471Z,4.53
2022-12-21T21:13:40.291Z,5.25
2022-12-21T21:18:45.229Z,4.75
2022-12-21T21:28:51.673Z,5.40
2022-12-21T21:33:56.516Z,6.63
2022-12-21T21:44:30.298Z,4.65
2022-12-21T21:49:35.170Z,4.93
2022-12-21T21:59:41.772Z,5.53
2022-12-21T22:04:49.858Z,4.65
2022-12-21T22:16:03.457Z,5.00
2022-12-21T22:21:51.105Z,4.30
2022-12-21T22:27:11.742Z,3.75
2022-12-21T22:32:16.628Z,4.03
2022-12-21T22:42:46.481Z,2.90
2022-12-21T22:47:50.484Z,4.00
2022-12-21T22:52:55.434Z,3.40
2022-12-21T23:03:02.339Z,4.10
2022-12-21T23:08:07.213Z,2.92
2022-12-21T23:13:32.386Z,3.35
2022-12-21T23:18:37.453Z,2.83
2022-12-21T23:23:59.371Z,3.22
2022-12-21T23:29:02.781Z,3.83
2022-12-21T23:34:23.584Z,4.03
2022-12-21T23:40:01.404Z,3.30
2022-12-21T23:45:06.725Z,3.45
2022-12-21T23:50:28.436Z,4.35
2022-12-21T23:55:51.456Z,3.80
